sensor_id;sensor_type;location;lat;lon;timestamp;P1;durP1;ratioP1;P2;durP2;ratioP2
15567;SDS011;7885;42.596;23.044;2023-04-25T00:00:54;0.70;;;0.70;;
15567;SDS011;7885;42.596;23.044;2023-04-25T00:03:21;0.50;;;0.50;;
15567;SDS011;7885;42.596;23.044;2023-04-25T00:05:50;0.70;;;0.60;;
15567;SDS011;7885;42.596;23.044;2023-04-25T00:08:16;0.80;;;0.80;;
15567;SDS011;7885;42.596;23.044;2023-04-25T00:10:43;1.23;;;0.90;;
15567;SDS011;7885;42.596;23.044;2023-04-25T00:13:10;0.80;;;0.80;;
15567;SDS011;7885;42.596;23.044;2023-04-25T00:15:37;0.93;;;0.90;;
15567;SDS011;7885;42.596;23.044;2023-04-25T00:18:07;0.90;;;0.90;;
15567;SDS011;7885;42.596;23.044;2023-04-25T00:20:35;0.93;;;0.90;;
15567;SDS011;7885;42.596;23.044;2023-04-25T00:23:01;1.80;;;1.70;;
15567;SDS011;7885;42.596;23.044;2023-04-25T00:25:28;1.97;;;1.77;;
15567;SDS011;7885;42.596;23.044;2023-04-25T00:27:55;2.30;;;1.40;;
15567;SDS011;7885;42.596;23.044;2023-04-25T00:30:22;1.63;;;1.53;;
15567;SDS011;7885;42.596;23.044;2023-04-25T00:32:48;2.37;;;1.87;;
15567;SDS011;7885;42.596;23.044;2023-04-25T00:35:17;2.43;;;1.93;;
15567;SDS011;7885;42.596;23.044;2023-04-25T00:37:43;3.80;;;1.50;;
15567;SDS011;7885;42.596;23.044;2023-04-25T00:40:10;2.60;;;1.40;;
15567;SDS011;7885;42.596;23.044;2023-04-25T00:42:37;1.53;;;1.30;;
15567;SDS011;7885;42.596;23.044;2023-04-25T00:45:05;1.40;;;1.30;;
15567;SDS011;7885;42.596;23.044;2023-04-25T00:47:33;1.23;;;1.20;;
15567;SDS011;7885;42.596;23.044;2023-04-25T00:50:02;2.27;;;1.83;;
15567;SDS011;7885;42.596;23.044;2023-04-25T00:52:30;4.87;;;2.53;;
15567;SDS011;7885;42.596;23.044;2023-04-25T00:54:57;5.37;;;2.50;;
15567;SDS011;7885;42.596;23.044;2023-04-25T00:57:24;4.57;;;2.50;;
15567;SDS011;7885;42.596;23.044;2023-04-25T00:59:51;3.90;;;2.23;;
15567;SDS011;7885;42.596;23.044;2023-04-25T01:02:19;3.33;;;3.00;;
15567;SDS011;7885;42.596;23.044;2023-04-25T01:04:47;3.37;;;2.33;;
15567;SDS011;7885;42.596;23.044;2023-04-25T01:07:14;4.87;;;3.57;;
15567;SDS011;7885;42.596;23.044;2023-04-25T01:09:42;2.97;;;2.57;;
15567;SDS011;7885;42.596;23.044;2023-04-25T01:12:09;3.43;;;2.67;;
15567;SDS011;7885;42.596;23.044;2023-04-25T01:14:36;3.77;;;2.80;;
15567;SDS011;7885;42.596;23.044;2023-04-25T01:17:03;4.67;;;3.97;;
15567;SDS011;7885;42.596;23.044;2023-04-25T01:19:30;4.70;;;3.80;;
15567;SDS011;7885;42.596;23.044;2023-04-25T01:21:58;6.43;;;4.43;;
15567;SDS011;7885;42.596;23.044;2023-04-25T01:24:25;5.97;;;4.30;;
15567;SDS011;7885;42.596;23.044;2023-04-25T01:26:52;6.23;;;4.53;;
15567;SDS011;7885;42.596;23.044;2023-04-25T01:29:21;7.63;;;4.70;;
15567;SDS011;7885;42.596;23.044;2023-04-25T01:31:49;5.13;;;3.33;;
15567;SDS011;7885;42.596;23.044;2023-04-25T01:34:17;3.60;;;2.60;;
15567;SDS011;7885;42.596;23.044;2023-04-25T01:36:44;2.60;;;2.40;;
15567;SDS011;7885;42.596;23.044;2023-04-25T01:39:13;2.90;;;2.60;;
15567;SDS011;7885;42.596;23.044;2023-04-25T01:41:40;3.00;;;2.80;;
15567;SDS011;7885;42.596;23.044;2023-04-25T01:44:07;4.40;;;4.00;;
15567;SDS011;7885;42.596;23.044;2023-04-25T01:46:34;4.60;;;4.13;;
15567;SDS011;7885;42.596;23.044;2023-04-25T01:49:01;6.50;;;5.03;;
15567;SDS011;7885;42.596;23.044;2023-04-25T01:51:28;8.00;;;5.40;;
15567;SDS011;7885;42.596;23.044;2023-04-25T01:53:55;7.03;;;5.57;;
15567;SDS011;7885;42.596;23.044;2023-04-25T01:56:24;7.03;;;5.50;;
15567;SDS011;7885;42.596;23.044;2023-04-25T01:58:51;5.90;;;4.50;;
15567;SDS011;7885;42.596;23.044;2023-04-25T02:01:18;5.10;;;4.50;;
15567;SDS011;7885;42.596;23.044;2023-04-25T02:03:44;4.87;;;4.40;;
15567;SDS011;7885;42.596;23.044;2023-04-25T02:06:11;4.53;;;4.13;;
15567;SDS011;7885;42.596;23.044;2023-04-25T02:08:38;4.93;;;4.53;;
15567;SDS011;7885;42.596;23.044;2023-04-25T02:11:04;5.00;;;4.60;;
15567;SDS011;7885;42.596;23.044;2023-04-25T02:13:32;9.57;;;8.23;;
15567;SDS011;7885;42.596;23.044;2023-04-25T02:15:59;11.43;;;7.90;;
15567;SDS011;7885;42.596;23.044;2023-04-25T02:18:26;6.50;;;5.90;;
15567;SDS011;7885;42.596;23.044;2023-04-25T02:20:52;7.77;;;6.97;;
15567;SDS011;7885;42.596;23.044;2023-04-25T02:23:19;6.73;;;6.13;;
15567;SDS011;7885;42.596;23.044;2023-04-25T02:25:46;8.93;;;7.20;;
15567;SDS011;7885;42.596;23.044;2023-04-25T02:28:13;7.53;;;6.83;;
15567;SDS011;7885;42.596;23.044;2023-04-25T02:30:41;9.10;;;6.90;;
15567;SDS011;7885;42.596;23.044;2023-04-25T02:33:08;8.33;;;7.43;;
15567;SDS011;7885;42.596;23.044;2023-04-25T02:35:35;10.47;;;6.50;;
15567;SDS011;7885;42.596;23.044;2023-04-25T02:38:02;9.80;;;6.23;;
15567;SDS011;7885;42.596;23.044;2023-04-25T02:40:28;8.90;;;6.17;;
15567;SDS011;7885;42.596;23.044;2023-04-25T02:42:55;10.77;;;6.10;;
15567;SDS011;7885;42.596;23.044;2023-04-25T02:45:23;12.90;;;7.23;;
15567;SDS011;7885;42.596;23.044;2023-04-25T02:47:51;8.33;;;6.87;;
15567;SDS011;7885;42.596;23.044;2023-04-25T02:50:18;11.53;;;6.97;;
15567;SDS011;7885;42.596;23.044;2023-04-25T02:52:44;9.00;;;6.50;;
15567;SDS011;7885;42.596;23.044;2023-04-25T02:55:12;11.00;;;8.47;;
15567;SDS011;7885;42.596;23.044;2023-04-25T02:57:39;9.17;;;7.90;;
15567;SDS011;7885;42.596;23.044;2023-04-25T03:00:06;9.87;;;7.27;;
15567;SDS011;7885;42.596;23.044;2023-04-25T03:02:33;10.87;;;7.70;;
15567;SDS011;7885;42.596;23.044;2023-04-25T03:05:01;8.93;;;7.20;;
15567;SDS011;7885;42.596;23.044;2023-04-25T03:07:28;11.47;;;8.23;;
15567;SDS011;7885;42.596;23.044;2023-04-25T03:09:55;10.40;;;8.80;;
15567;SDS011;7885;42.596;23.044;2023-04-25T03:12:22;12.63;;;10.37;;
15567;SDS011;7885;42.596;23.044;2023-04-25T03:14:48;11.23;;;10.13;;
15567;SDS011;7885;42.596;23.044;2023-04-25T03:17:15;6.53;;;5.97;;
15567;SDS011;7885;42.596;23.044;2023-04-25T03:19:42;7.77;;;7.13;;
15567;SDS011;7885;42.596;23.044;2023-04-25T03:22:10;6.40;;;5.90;;
15567;SDS011;7885;42.596;23.044;2023-04-25T03:24:36;8.77;;;7.93;;
15567;SDS011;7885;42.596;23.044;2023-04-25T03:27:03;7.73;;;7.00;;
15567;SDS011;7885;42.596;23.044;2023-04-25T03:29:30;8.47;;;7.67;;
15567;SDS011;7885;42.596;23.044;2023-04-25T03:31:56;7.97;;;7.27;;
15567;SDS011;7885;42.596;23.044;2023-04-25T03:34:23;5.60;;;5.20;;
15567;SDS011;7885;42.596;23.044;2023-04-25T03:36:51;5.63;;;5.00;;
15567;SDS011;7885;42.596;23.044;2023-04-25T03:39:19;5.03;;;4.63;;
15567;SDS011;7885;42.596;23.044;2023-04-25T03:41:45;6.70;;;6.10;;
15567;SDS011;7885;42.596;23.044;2023-04-25T03:44:12;7.47;;;6.13;;
15567;SDS011;7885;42.596;23.044;2023-04-25T03:46:39;7.33;;;6.73;;
15567;SDS011;7885;42.596;23.044;2023-04-25T03:49:06;8.30;;;7.57;;
15567;SDS011;7885;42.596;23.044;2023-04-25T03:51:32;10.70;;;9.80;;
15567;SDS011;7885;42.596;23.044;2023-04-25T03:53:59;10.90;;;9.73;;
15567;SDS011;7885;42.596;23.044;2023-04-25T03:56:27;5.90;;;5.40;;
15567;SDS011;7885;42.596;23.044;2023-04-25T03:58:54;6.87;;;6.17;;
15567;SDS011;7885;42.596;23.044;2023-04-25T04:01:20;6.87;;;6.37;;
15567;SDS011;7885;42.596;23.044;2023-04-25T04:03:47;6.03;;;5.53;;
15567;SDS011;7885;42.596;23.044;2023-04-25T04:06:14;5.40;;;5.00;;
15567;SDS011;7885;42.596;23.044;2023-04-25T04:08:41;5.18;;;4.68;;
15567;SDS011;7885;42.596;23.044;2023-04-25T04:11:07;4.33;;;3.93;;
15567;SDS011;7885;42.596;23.044;2023-04-25T04:13:36;5.20;;;4.47;;
15567;SDS011;7885;42.596;23.044;2023-04-25T04:16:02;4.50;;;4.10;;
15567;SDS011;7885;42.596;23.044;2023-04-25T04:18:29;3.80;;;3.50;;
15567;SDS011;7885;42.596;23.044;2023-04-25T04:20:58;4.60;;;4.20;;
15567;SDS011;7885;42.596;23.044;2023-04-25T04:23:25;4.60;;;4.20;;
15567;SDS011;7885;42.596;23.044;2023-04-25T04:25:52;4.03;;;3.70;;
15567;SDS011;7885;42.596;23.044;2023-04-25T04:28:19;3.97;;;3.67;;
15567;SDS011;7885;42.596;23.044;2023-04-25T04:30:48;4.37;;;3.97;;
15567;SDS011;7885;42.596;23.044;2023-04-25T04:33:16;3.93;;;3.63;;
15567;SDS011;7885;42.596;23.044;2023-04-25T04:35:44;5.13;;;4.73;;
15567;SDS011;7885;42.596;23.044;2023-04-25T04:38:11;5.57;;;5.07;;
15567;SDS011;7885;42.596;23.044;2023-04-25T04:40:40;3.80;;;3.50;;
15567;SDS011;7885;42.596;23.044;2023-04-25T04:43:08;3.47;;;3.20;;
15567;SDS011;7885;42.596;23.044;2023-04-25T04:45:35;3.67;;;3.37;;
15567;SDS011;7885;42.596;23.044;2023-04-25T04:48:05;3.87;;;3.57;;
15567;SDS011;7885;42.596;23.044;2023-04-25T04:50:31;4.30;;;3.90;;
15567;SDS011;7885;42.596;23.044;2023-04-25T04:52:59;3.87;;;3.57;;
15567;SDS011;7885;42.596;23.044;2023-04-25T04:55:25;4.03;;;3.73;;
15567;SDS011;7885;42.596;23.044;2023-04-25T04:57:52;3.10;;;2.90;;
15567;SDS011;7885;42.596;23.044;2023-04-25T05:03:42;3.23;;;3.00;;
15567;SDS011;7885;42.596;23.044;2023-04-25T05:06:08;3.20;;;3.00;;
15567;SDS011;7885;42.596;23.044;2023-04-25T05:08:35;3.93;;;3.63;;
15567;SDS011;7885;42.596;23.044;2023-04-25T05:11:02;4.00;;;3.60;;
15567;SDS011;7885;42.596;23.044;2023-04-25T05:13:29;4.67;;;4.10;;
15567;SDS011;7885;42.596;23.044;2023-04-25T05:15:56;4.40;;;4.00;;
15567;SDS011;7885;42.596;23.044;2023-04-25T05:18:23;4.40;;;4.00;;
15567;SDS011;7885;42.596;23.044;2023-04-25T05:20:51;4.33;;;4.00;;
15567;SDS011;7885;42.596;23.044;2023-04-25T05:23:18;4.23;;;3.83;;
15567;SDS011;7885;42.596;23.044;2023-04-25T05:25:45;4.70;;;4.30;;
15567;SDS011;7885;42.596;23.044;2023-04-25T05:28:12;5.40;;;4.43;;
15567;SDS011;7885;42.596;23.044;2023-04-25T05:30:39;6.90;;;5.60;;
15567;SDS011;7885;42.596;23.044;2023-04-25T05:36:29;8.90;;;5.60;;
15567;SDS011;7885;42.596;23.044;2023-04-25T05:38:57;6.40;;;5.00;;
15567;SDS011;7885;42.596;23.044;2023-04-25T05:41:24;6.23;;;5.43;;
15567;SDS011;7885;42.596;23.044;2023-04-25T05:43:51;6.07;;;5.50;;
15567;SDS011;7885;42.596;23.044;2023-04-25T05:46:18;6.33;;;5.73;;
15567;SDS011;7885;42.596;23.044;2023-04-25T05:48:44;6.47;;;5.80;;
15567;SDS011;7885;42.596;23.044;2023-04-25T05:51:11;6.40;;;5.80;;
15567;SDS011;7885;42.596;23.044;2023-04-25T05:53:39;6.53;;;5.83;;
15567;SDS011;7885;42.596;23.044;2023-04-25T05:56:06;6.17;;;5.03;;
15567;SDS011;7885;42.596;23.044;2023-04-25T05:58:33;4.17;;;3.63;;
15567;SDS011;7885;42.596;23.044;2023-04-25T06:00:59;4.73;;;4.10;;
15567;SDS011;7885;42.596;23.044;2023-04-25T06:03:26;4.40;;;4.00;;
15567;SDS011;7885;42.596;23.044;2023-04-25T06:05:53;4.13;;;3.50;;
15567;SDS011;7885;42.596;23.044;2023-04-25T06:08:20;4.97;;;3.57;;
15567;SDS011;7885;42.596;23.044;2023-04-25T06:10:48;4.37;;;3.97;;
15567;SDS011;7885;42.596;23.044;2023-04-25T06:13:14;4.20;;;3.80;;
15567;SDS011;7885;42.596;23.044;2023-04-25T06:15:41;4.40;;;4.00;;
15567;SDS011;7885;42.596;23.044;2023-04-25T06:18:08;4.83;;;3.33;;
15567;SDS011;7885;42.596;23.044;2023-04-25T06:20:35;4.00;;;3.60;;
15567;SDS011;7885;42.596;23.044;2023-04-25T06:23:02;3.57;;;3.27;;
15567;SDS011;7885;42.596;23.044;2023-04-25T06:25:28;3.60;;;3.13;;
15567;SDS011;7885;42.596;23.044;2023-04-25T06:27:57;3.37;;;3.07;;
15567;SDS011;7885;42.596;23.044;2023-04-25T06:30:23;4.63;;;3.13;;
15567;SDS011;7885;42.596;23.044;2023-04-25T06:32:51;4.53;;;3.57;;
15567;SDS011;7885;42.596;23.044;2023-04-25T06:35:26;3.53;;;3.23;;
15567;SDS011;7885;42.596;23.044;2023-04-25T06:37:53;4.20;;;3.67;;
15567;SDS011;7885;42.596;23.044;2023-04-25T06:40:20;3.70;;;3.30;;
15567;SDS011;7885;42.596;23.044;2023-04-25T06:42:47;5.53;;;3.90;;
15567;SDS011;7885;42.596;23.044;2023-04-25T06:45:15;4.80;;;3.93;;
15567;SDS011;7885;42.596;23.044;2023-04-25T06:47:41;3.70;;;3.40;;
15567;SDS011;7885;42.596;23.044;2023-04-25T06:50:08;4.07;;;3.53;;
15567;SDS011;7885;42.596;23.044;2023-04-25T06:52:36;3.30;;;3.10;;
15567;SDS011;7885;42.596;23.044;2023-04-25T06:55:02;4.03;;;3.43;;
15567;SDS011;7885;42.596;23.044;2023-04-25T06:57:30;3.63;;;3.00;;
15567;SDS011;7885;42.596;23.044;2023-04-25T06:59:57;3.43;;;3.13;;
15567;SDS011;7885;42.596;23.044;2023-04-25T07:02:25;3.47;;;3.17;;
15567;SDS011;7885;42.596;23.044;2023-04-25T07:04:52;3.40;;;2.80;;
15567;SDS011;7885;42.596;23.044;2023-04-25T07:07:20;4.00;;;2.83;;
15567;SDS011;7885;42.596;23.044;2023-04-25T07:09:47;4.97;;;3.13;;
15567;SDS011;7885;42.596;23.044;2023-04-25T07:12:14;3.67;;;3.30;;
15567;SDS011;7885;42.596;23.044;2023-04-25T07:14:41;3.07;;;2.77;;
15567;SDS011;7885;42.596;23.044;2023-04-25T07:17:07;2.60;;;2.40;;
15567;SDS011;7885;42.596;23.044;2023-04-25T07:19:36;3.93;;;2.80;;
15567;SDS011;7885;42.596;23.044;2023-04-25T07:22:04;3.03;;;2.80;;
15567;SDS011;7885;42.596;23.044;2023-04-25T07:24:31;3.10;;;2.80;;
15567;SDS011;7885;42.596;23.044;2023-04-25T07:26:58;2.97;;;2.70;;
15567;SDS011;7885;42.596;23.044;2023-04-25T07:29:26;3.33;;;3.00;;
15567;SDS011;7885;42.596;23.044;2023-04-25T07:31:53;3.00;;;2.70;;
15567;SDS011;7885;42.596;23.044;2023-04-25T07:34:20;2.97;;;2.67;;
15567;SDS011;7885;42.596;23.044;2023-04-25T07:36:48;3.30;;;2.60;;
15567;SDS011;7885;42.596;23.044;2023-04-25T07:39:15;2.70;;;2.50;;
15567;SDS011;7885;42.596;23.044;2023-04-25T07:41:42;2.30;;;2.03;;
15567;SDS011;7885;42.596;23.044;2023-04-25T07:44:08;2.47;;;2.27;;
15567;SDS011;7885;42.596;23.044;2023-04-25T07:46:35;3.10;;;2.20;;
15567;SDS011;7885;42.596;23.044;2023-04-25T07:49:02;2.13;;;2.03;;
15567;SDS011;7885;42.596;23.044;2023-04-25T07:51:29;4.20;;;3.37;;
15567;SDS011;7885;42.596;23.044;2023-04-25T07:53:58;3.07;;;2.37;;
15567;SDS011;7885;42.596;23.044;2023-04-25T07:56:25;2.30;;;2.10;;
15567;SDS011;7885;42.596;23.044;2023-04-25T07:58:52;1.90;;;1.70;;
15567;SDS011;7885;42.596;23.044;2023-04-25T08:01:19;1.53;;;1.43;;
15567;SDS011;7885;42.596;23.044;2023-04-25T08:03:47;2.07;;;1.97;;
15567;SDS011;7885;42.596;23.044;2023-04-25T08:06:13;1.80;;;1.70;;
15567;SDS011;7885;42.596;23.044;2023-04-25T08:08:40;3.93;;;2.03;;
15567;SDS011;7885;42.596;23.044;2023-04-25T08:11:08;2.30;;;2.10;;
15567;SDS011;7885;42.596;23.044;2023-04-25T08:13:35;1.60;;;1.50;;
15567;SDS011;7885;42.596;23.044;2023-04-25T08:16:02;1.60;;;1.50;;
15567;SDS011;7885;42.596;23.044;2023-04-25T08:18:29;2.53;;;1.70;;
15567;SDS011;7885;42.596;23.044;2023-04-25T08:20:57;3.47;;;2.13;;
15567;SDS011;7885;42.596;23.044;2023-04-25T08:23:23;1.53;;;1.43;;
15567;SDS011;7885;42.596;23.044;2023-04-25T08:25:50;1.50;;;1.40;;
15567;SDS011;7885;42.596;23.044;2023-04-25T08:28:18;2.50;;;1.50;;
15567;SDS011;7885;42.596;23.044;2023-04-25T08:30:45;1.53;;;1.40;;
15567;SDS011;7885;42.596;23.044;2023-04-25T08:33:12;1.23;;;1.03;;
15567;SDS011;7885;42.596;23.044;2023-04-25T08:35:39;1.30;;;1.20;;
15567;SDS011;7885;42.596;23.044;2023-04-25T08:38:05;1.33;;;1.20;;
15567;SDS011;7885;42.596;23.044;2023-04-25T08:40:32;1.70;;;1.43;;
15567;SDS011;7885;42.596;23.044;2023-04-25T08:43:03;1.27;;;1.17;;
15567;SDS011;7885;42.596;23.044;2023-04-25T08:45:38;1.70;;;1.30;;
15567;SDS011;7885;42.596;23.044;2023-04-25T08:48:07;2.10;;;1.90;;
15567;SDS011;7885;42.596;23.044;2023-04-25T08:50:36;1.70;;;1.40;;
15567;SDS011;7885;42.596;23.044;2023-04-25T08:53:05;2.10;;;1.90;;
15567;SDS011;7885;42.596;23.044;2023-04-25T08:55:35;2.00;;;1.80;;
15567;SDS011;7885;42.596;23.044;2023-04-25T08:58:03;1.60;;;1.30;;
15567;SDS011;7885;42.596;23.044;2023-04-25T09:00:31;1.87;;;1.30;;
15567;SDS011;7885;42.596;23.044;2023-04-25T09:02:59;1.10;;;1.00;;
15567;SDS011;7885;42.596;23.044;2023-04-25T09:05:27;1.27;;;1.10;;
15567;SDS011;7885;42.596;23.044;2023-04-25T09:18:00;0.80;;;0.80;;
15567;SDS011;7885;42.596;23.044;2023-04-25T09:20:27;0.73;;;0.73;;
15567;SDS011;7885;42.596;23.044;2023-04-25T09:23:00;1.17;;;0.90;;
15567;SDS011;7885;42.596;23.044;2023-04-25T09:25:28;0.80;;;0.80;;
15567;SDS011;7885;42.596;23.044;2023-04-25T09:28:03;1.63;;;1.00;;
15567;SDS011;7885;42.596;23.044;2023-04-25T09:30:31;1.17;;;0.90;;
15567;SDS011;7885;42.596;23.044;2023-04-25T09:33:04;1.83;;;1.23;;
15567;SDS011;7885;42.596;23.044;2023-04-25T09:35:35;1.43;;;0.93;;
15567;SDS011;7885;42.596;23.044;2023-04-25T09:38:06;3.53;;;0.93;;
15567;SDS011;7885;42.596;23.044;2023-04-25T09:40:34;2.83;;;1.00;;
15567;SDS011;7885;42.596;23.044;2023-04-25T09:43:08;2.10;;;1.40;;
15567;SDS011;7885;42.596;23.044;2023-04-25T09:45:40;1.10;;;0.93;;
15567;SDS011;7885;42.596;23.044;2023-04-25T09:48:12;1.97;;;0.87;;
15567;SDS011;7885;42.596;23.044;2023-04-25T09:50:43;1.10;;;1.00;;
15567;SDS011;7885;42.596;23.044;2023-04-25T09:53:10;2.03;;;1.20;;
15567;SDS011;7885;42.596;23.044;2023-04-25T09:55:37;0.87;;;0.80;;
15567;SDS011;7885;42.596;23.044;2023-04-25T09:58:05;0.83;;;0.77;;
15567;SDS011;7885;42.596;23.044;2023-04-25T10:00:33;0.70;;;0.70;;
15567;SDS011;7885;42.596;23.044;2023-04-25T10:03:00;0.93;;;0.87;;
15567;SDS011;7885;42.596;23.044;2023-04-25T10:05:32;1.20;;;1.10;;
15567;SDS011;7885;42.596;23.044;2023-04-25T10:08:02;2.27;;;1.97;;
15567;SDS011;7885;42.596;23.044;2023-04-25T10:10:29;2.60;;;1.70;;
15567;SDS011;7885;42.596;23.044;2023-04-25T10:13:02;2.53;;;1.50;;
15567;SDS011;7885;42.596;23.044;2023-04-25T10:28:59;1.10;;;1.00;;
15567;SDS011;7885;42.596;23.044;2023-04-25T10:31:27;0.80;;;0.70;;
15567;SDS011;7885;42.596;23.044;2023-04-25T10:33:55;0.87;;;0.80;;
15567;SDS011;7885;42.596;23.044;2023-04-25T10:36:23;1.23;;;1.00;;
15567;SDS011;7885;42.596;23.044;2023-04-25T10:38:52;1.07;;;0.90;;
15567;SDS011;7885;42.596;23.044;2023-04-25T10:41:19;1.03;;;0.90;;
15567;SDS011;7885;42.596;23.044;2023-04-25T10:43:48;1.47;;;0.87;;
15567;SDS011;7885;42.596;23.044;2023-04-25T10:46:18;1.00;;;0.80;;
15567;SDS011;7885;42.596;23.044;2023-04-25T10:48:47;1.33;;;0.80;;
15567;SDS011;7885;42.596;23.044;2023-04-25T10:51:19;0.90;;;0.80;;
15567;SDS011;7885;42.596;23.044;2023-04-25T10:53:48;1.03;;;0.90;;
15567;SDS011;7885;42.596;23.044;2023-04-25T10:56:25;0.80;;;0.80;;
15567;SDS011;7885;42.596;23.044;2023-04-25T10:59:08;1.53;;;0.80;;
15567;SDS011;7885;42.596;23.044;2023-04-25T11:01:41;2.10;;;1.00;;
15567;SDS011;7885;42.596;23.044;2023-04-25T11:04:19;2.23;;;2.03;;
15567;SDS011;7885;42.596;23.044;2023-04-25T11:06:53;1.20;;;1.10;;
15567;SDS011;7885;42.596;23.044;2023-04-25T11:09:26;1.20;;;1.10;;
15567;SDS011;7885;42.596;23.044;2023-04-25T11:11:53;3.10;;;1.53;;
15567;SDS011;7885;42.596;23.044;2023-04-25T11:14:21;2.93;;;2.20;;
15567;SDS011;7885;42.596;23.044;2023-04-25T11:16:53;1.63;;;1.23;;
15567;SDS011;7885;42.596;23.044;2023-04-25T11:19:20;3.77;;;1.77;;
15567;SDS011;7885;42.596;23.044;2023-04-25T11:21:48;9.43;;;2.17;;
15567;SDS011;7885;42.596;23.044;2023-04-25T11:24:15;4.73;;;3.40;;
15567;SDS011;7885;42.596;23.044;2023-04-25T11:26:42;7.20;;;6.03;;
15567;SDS011;7885;42.596;23.044;2023-04-25T11:29:09;5.17;;;1.80;;
15567;SDS011;7885;42.596;23.044;2023-04-25T11:31:36;2.73;;;1.60;;
15567;SDS011;7885;42.596;23.044;2023-04-25T11:34:04;2.50;;;1.40;;
15567;SDS011;7885;42.596;23.044;2023-04-25T11:36:31;2.93;;;2.73;;
15567;SDS011;7885;42.596;23.044;2023-04-25T11:38:58;3.10;;;1.30;;
15567;SDS011;7885;42.596;23.044;2023-04-25T11:41:25;1.57;;;0.87;;
15567;SDS011;7885;42.596;23.044;2023-04-25T11:43:52;1.57;;;1.00;;
15567;SDS011;7885;42.596;23.044;2023-04-25T11:46:19;1.17;;;0.90;;
15567;SDS011;7885;42.596;23.044;2023-04-25T11:48:46;3.03;;;1.00;;
15567;SDS011;7885;42.596;23.044;2023-04-25T11:51:14;2.00;;;1.07;;
15567;SDS011;7885;42.596;23.044;2023-04-25T11:53:41;2.30;;;1.10;;
15567;SDS011;7885;42.596;23.044;2023-04-25T11:56:09;1.67;;;0.90;;
15567;SDS011;7885;42.596;23.044;2023-04-25T12:01:26;1.37;;;1.20;;
15567;SDS011;7885;42.596;23.044;2023-04-25T12:03:53;2.93;;;2.00;;
15567;SDS011;7885;42.596;23.044;2023-04-25T12:06:23;6.27;;;4.53;;
15567;SDS011;7885;42.596;23.044;2023-04-25T12:08:59;4.07;;;2.97;;
15567;SDS011;7885;42.596;23.044;2023-04-25T12:11:29;1.43;;;1.33;;
15567;SDS011;7885;42.596;23.044;2023-04-25T12:14:01;1.77;;;1.40;;
15567;SDS011;7885;42.596;23.044;2023-04-25T12:16:29;2.30;;;1.30;;
15567;SDS011;7885;42.596;23.044;2023-04-25T12:18:56;1.30;;;0.83;;
15567;SDS011;7885;42.596;23.044;2023-04-25T12:21:29;1.47;;;1.00;;
15567;SDS011;7885;42.596;23.044;2023-04-25T12:24:07;1.60;;;0.80;;
15567;SDS011;7885;42.596;23.044;2023-04-25T12:26:45;1.70;;;0.90;;
15567;SDS011;7885;42.596;23.044;2023-04-25T12:29:16;1.37;;;0.90;;
15567;SDS011;7885;42.596;23.044;2023-04-25T12:31:43;1.33;;;1.00;;
15567;SDS011;7885;42.596;23.044;2023-04-25T12:34:11;1.00;;;0.90;;
15567;SDS011;7885;42.596;23.044;2023-04-25T12:36:39;2.10;;;1.10;;
15567;SDS011;7885;42.596;23.044;2023-04-25T12:39:06;1.00;;;0.90;;
15567;SDS011;7885;42.596;23.044;2023-04-25T12:41:33;1.13;;;1.00;;
15567;SDS011;7885;42.596;23.044;2023-04-25T12:44:00;1.37;;;0.83;;
15567;SDS011;7885;42.596;23.044;2023-04-25T12:46:26;1.43;;;0.87;;
15567;SDS011;7885;42.596;23.044;2023-04-25T12:48:53;0.80;;;0.80;;
15567;SDS011;7885;42.596;23.044;2023-04-25T12:51:21;1.50;;;1.30;;
15567;SDS011;7885;42.596;23.044;2023-04-25T12:53:51;1.60;;;1.30;;
15567;SDS011;7885;42.596;23.044;2023-04-25T12:56:18;1.80;;;1.40;;
15567;SDS011;7885;42.596;23.044;2023-04-25T12:58:45;2.53;;;1.70;;
15567;SDS011;7885;42.596;23.044;2023-04-25T13:01:13;2.10;;;1.90;;
15567;SDS011;7885;42.596;23.044;2023-04-25T13:03:40;2.70;;;2.30;;
15567;SDS011;7885;42.596;23.044;2023-04-25T13:06:07;2.70;;;2.40;;
15567;SDS011;7885;42.596;23.044;2023-04-25T13:08:33;2.57;;;2.30;;
15567;SDS011;7885;42.596;23.044;2023-04-25T13:11:03;4.80;;;2.90;;
15567;SDS011;7885;42.596;23.044;2023-04-25T13:13:30;4.67;;;3.90;;
15567;SDS011;7885;42.596;23.044;2023-04-25T13:15:59;5.03;;;4.43;;
15567;SDS011;7885;42.596;23.044;2023-04-25T13:18:27;4.50;;;4.10;;
15567;SDS011;7885;42.596;23.044;2023-04-25T13:20:53;6.37;;;3.80;;
15567;SDS011;7885;42.596;23.044;2023-04-25T13:23:20;5.67;;;4.40;;
15567;SDS011;7885;42.596;23.044;2023-04-25T13:25:47;3.23;;;2.40;;
15567;SDS011;7885;42.596;23.044;2023-04-25T13:28:15;3.47;;;2.43;;
15567;SDS011;7885;42.596;23.044;2023-04-25T13:30:42;5.27;;;4.73;;
15567;SDS011;7885;42.596;23.044;2023-04-25T13:33:09;9.00;;;5.50;;
15567;SDS011;7885;42.596;23.044;2023-04-25T13:35:36;5.23;;;4.23;;
15567;SDS011;7885;42.596;23.044;2023-04-25T13:38:04;4.20;;;3.13;;
15567;SDS011;7885;42.596;23.044;2023-04-25T13:40:31;4.60;;;2.80;;
15567;SDS011;7885;42.596;23.044;2023-04-25T13:42:58;2.97;;;2.47;;
15567;SDS011;7885;42.596;23.044;2023-04-25T13:45:26;2.10;;;1.90;;
15567;SDS011;7885;42.596;23.044;2023-04-25T13:47:53;1.50;;;1.40;;
15567;SDS011;7885;42.596;23.044;2023-04-25T13:50:20;1.73;;;1.00;;
15567;SDS011;7885;42.596;23.044;2023-04-25T13:52:47;1.43;;;0.87;;
15567;SDS011;7885;42.596;23.044;2023-04-25T13:55:13;1.40;;;1.20;;
15567;SDS011;7885;42.596;23.044;2023-04-25T13:57:40;1.50;;;1.10;;
15567;SDS011;7885;42.596;23.044;2023-04-25T14:00:08;1.93;;;1.20;;
15567;SDS011;7885;42.596;23.044;2023-04-25T14:02:37;0.97;;;0.93;;
15567;SDS011;7885;42.596;23.044;2023-04-25T14:05:04;1.40;;;1.30;;
15567;SDS011;7885;42.596;23.044;2023-04-25T14:07:33;1.77;;;1.30;;
15567;SDS011;7885;42.596;23.044;2023-04-25T14:10:00;3.03;;;2.20;;
15567;SDS011;7885;42.596;23.044;2023-04-25T14:12:27;2.30;;;2.10;;
15567;SDS011;7885;42.596;23.044;2023-04-25T14:14:54;1.80;;;1.30;;
15567;SDS011;7885;42.596;23.044;2023-04-25T14:17:20;2.00;;;1.70;;
15567;SDS011;7885;42.596;23.044;2023-04-25T14:19:49;1.50;;;1.20;;
15567;SDS011;7885;42.596;23.044;2023-04-25T14:22:15;1.53;;;1.43;;
15567;SDS011;7885;42.596;23.044;2023-04-25T14:24:42;3.20;;;2.97;;
15567;SDS011;7885;42.596;23.044;2023-04-25T14:27:09;2.00;;;1.90;;
15567;SDS011;7885;42.596;23.044;2023-04-25T14:29:36;1.73;;;1.63;;
15567;SDS011;7885;42.596;23.044;2023-04-25T14:32:03;3.37;;;1.30;;
15567;SDS011;7885;42.596;23.044;2023-04-25T14:34:31;1.83;;;1.30;;
15567;SDS011;7885;42.596;23.044;2023-04-25T14:36:59;2.67;;;1.23;;
15567;SDS011;7885;42.596;23.044;2023-04-25T14:39:26;1.80;;;1.40;;
15567;SDS011;7885;42.596;23.044;2023-04-25T14:41:53;2.93;;;1.60;;
15567;SDS011;7885;42.596;23.044;2023-04-25T14:44:21;2.03;;;1.83;;
15567;SDS011;7885;42.596;23.044;2023-04-25T14:46:47;3.53;;;3.10;;
15567;SDS011;7885;42.596;23.044;2023-04-25T14:49:16;6.40;;;6.00;;
15567;SDS011;7885;42.596;23.044;2023-04-25T14:51:43;3.97;;;3.53;;
15567;SDS011;7885;42.596;23.044;2023-04-25T14:54:11;2.63;;;2.30;;
15567;SDS011;7885;42.596;23.044;2023-04-25T14:56:38;2.37;;;2.00;;
15567;SDS011;7885;42.596;23.044;2023-04-25T14:59:05;2.83;;;2.60;;
15567;SDS011;7885;42.596;23.044;2023-04-25T15:08:15;9.90;;;6.70;;
15567;SDS011;7885;42.596;23.044;2023-04-25T15:10:45;10.17;;;6.33;;
15567;SDS011;7885;42.596;23.044;2023-04-25T15:13:12;5.63;;;4.17;;
15567;SDS011;7885;42.596;23.044;2023-04-25T15:15:40;3.97;;;2.77;;
15567;SDS011;7885;42.596;23.044;2023-04-25T15:18:07;4.73;;;2.97;;
15567;SDS011;7885;42.596;23.044;2023-04-25T15:20:33;5.63;;;3.70;;
15567;SDS011;7885;42.596;23.044;2023-04-25T15:23:01;2.47;;;2.27;;
15567;SDS011;7885;42.596;23.044;2023-04-25T15:25:29;2.60;;;1.80;;
15567;SDS011;7885;42.596;23.044;2023-04-25T15:27:58;2.57;;;1.70;;
15567;SDS011;7885;42.596;23.044;2023-04-25T15:30:25;2.20;;;2.00;;